createdAt,value
2022-09-28T00:02:30.002Z,0.70
2022-09-28T00:05:53.786Z,0.80
2022-09-28T00:09:18.542Z,0.73
2022-09-28T00:12:42.436Z,0.60
2022-09-28T00:16:08.274Z,0.70
2022-09-28T00:19:33.870Z,0.77
2022-09-28T00:22:57.549Z,0.70
2022-09-28T00:26:20.909Z,0.70
2022-09-28T00:29:44.724Z,0.80
2022-09-28T00:33:08.206Z,0.63
2022-09-28T00:36:34.908Z,0.80
2022-09-28T00:39:58.617Z,0.80
2022-09-28T00:43:23.722Z,0.80
2022-09-28T00:46:47.522Z,1.00
2022-09-28T00:50:22.185Z,0.70
2022-09-28T00:53:49.788Z,0.90
2022-09-28T00:57:14.809Z,0.80
2022-09-28T01:00:40.558Z,0.77
2022-09-28T01:04:04.891Z,0.80
2022-09-28T01:07:29.737Z,0.70
2022-09-28T01:10:55.019Z,0.70
2022-09-28T01:14:20.659Z,0.70
2022-09-28T01:17:56.666Z,0.60
2022-09-28T01:21:27.103Z,0.80
2022-09-28T01:25:07.553Z,0.70
2022-09-28T01:28:33.282Z,0.70
2022-09-28T01:32:05.070Z,0.67
2022-09-28T01:35:33.916Z,0.60
2022-09-28T01:39:03.554Z,0.70
2022-09-28T01:42:31.999Z,0.70
2022-09-28T01:46:01.819Z,0.90
2022-09-28T01:49:30.840Z,0.70
2022-09-28T01:52:59.798Z,0.80
2022-09-28T01:56:29.146Z,0.60
2022-09-28T02:00:00.821Z,0.60
2022-09-28T02:03:35.652Z,0.73
2022-09-28T02:07:04.538Z,0.80
2022-09-28T02:10:34.329Z,0.70
2022-09-28T02:14:04.808Z,0.80
2022-09-28T02:17:36.441Z,0.80
2022-09-28T02:21:09.924Z,0.70
2022-09-28T02:24:39.222Z,0.83
2022-09-28T02:28:06.911Z,0.70
2022-09-28T02:31:31.875Z,0.70
2022-09-28T02:34:58.079Z,0.97
2022-09-28T02:38:22.005Z,0.90
2022-09-28T02:41:55.895Z,0.70
2022-09-28T02:45:30.722Z,0.87
2022-09-28T02:49:20.756Z,0.90
2022-09-28T02:53:08.960Z,0.83
2022-09-28T02:56:47.356Z,0.83
2022-09-28T03:00:16.115Z,0.80
2022-09-28T03:03:49.341Z,1.00
2022-09-28T03:07:21.617Z,0.90
2022-09-28T03:10:51.688Z,1.00
2022-09-28T03:14:17.100Z,0.83
2022-09-28T03:17:47.680Z,0.70
2022-09-28T03:21:13.580Z,0.60
2022-09-28T03:24:37.360Z,0.80
2022-09-28T03:28:03.049Z,1.00
2022-09-28T03:31:30.471Z,0.80
2022-09-28T03:34:54.344Z,1.37
2022-09-28T03:38:18.522Z,0.70
2022-09-28T03:41:42.625Z,0.90
2022-09-28T03:45:08.761Z,0.90
2022-09-28T03:48:35.017Z,0.90
2022-09-28T03:51:58.915Z,0.70
2022-09-28T03:55:22.726Z,0.90
2022-09-28T03:58:46.501Z,0.80
2022-09-28T04:02:11.889Z,0.70
2022-09-28T04:05:35.455Z,0.80
2022-09-28T04:08:59.399Z,0.90
2022-09-28T04:12:23.362Z,0.90
2022-09-28T04:15:55.019Z,0.70
2022-09-28T04:19:20.286Z,0.80
2022-09-28T04:23:07.196Z,0.83
2022-09-28T04:26:31.100Z,0.80
2022-09-28T04:29:54.025Z,0.80
2022-09-28T04:33:17.564Z,0.80
2022-09-28T04:36:42.732Z,0.90
2022-09-28T04:40:07.676Z,0.77
2022-09-28T04:43:32.375Z,0.77
2022-09-28T04:46:58.246Z,0.70
2022-09-28T04:50:26.962Z,0.80
2022-09-28T04:54:10.227Z,0.80
2022-09-28T04:57:36.315Z,0.70
2022-09-28T05:01:03.507Z,0.70
2022-09-28T05:04:45.660Z,0.60
2022-09-28T05:08:28.704Z,0.70
2022-09-28T05:11:54.007Z,0.70
2022-09-28T05:15:21.120Z,0.77
2022-09-28T05:18:45.799Z,0.73
2022-09-28T05:22:14.671Z,0.80
2022-09-28T05:25:42.562Z,0.70
2022-09-28T05:29:15.108Z,0.60
2022-09-28T05:32:57.899Z,0.80
2022-09-28T05:36:35.656Z,0.60
2022-09-28T05:39:59.435Z,0.80
2022-09-28T05:43:23.936Z,0.80
2022-09-28T05:46:49.100Z,0.70
2022-09-28T05:50:16.033Z,0.70
2022-09-28T05:53:39.987Z,0.70
2022-09-28T05:57:06.099Z,0.63
2022-09-28T06:00:30.609Z,0.60
2022-09-28T06:03:55.899Z,0.70
2022-09-28T06:07:20.888Z,0.67
2022-09-28T06:10:44.886Z,0.93
2022-09-28T06:14:08.719Z,0.80
2022-09-28T06:17:33.031Z,1.23
2022-09-28T06:21:16.680Z,0.90
2022-09-28T06:24:43.115Z,0.70
2022-09-28T06:28:10.097Z,0.70
2022-09-28T06:31:33.930Z,0.70
2022-09-28T06:34:58.511Z,0.83
2022-09-28T06:38:24.451Z,0.80
2022-09-28T06:41:48.342Z,0.70
2022-09-28T06:45:14.559Z,0.70
2022-09-28T06:49:00.106Z,0.73
2022-09-28T06:52:44.172Z,0.70
2022-09-28T06:56:35.321Z,0.97
2022-09-28T06:59:59.132Z,0.90
2022-09-28T07:03:24.025Z,0.97
2022-09-28T07:07:08.855Z,1.00
2022-09-28T07:10:56.057Z,1.10
2022-09-28T07:14:47.851Z,0.90
2022-09-28T07:18:13.709Z,1.03
2022-09-28T07:21:39.831Z,1.10
2022-09-28T07:25:03.293Z,0.90
2022-09-28T07:29:05.333Z,1.30
2022-09-28T07:32:50.260Z,1.23
2022-09-28T07:36:45.875Z,1.10
2022-09-28T07:40:28.168Z,1.13
2022-09-28T07:43:52.213Z,1.50
2022-09-28T07:47:17.113Z,1.10
2022-09-28T07:51:01.803Z,1.17
2022-09-28T07:54:54.835Z,1.30
2022-09-28T07:58:40.631Z,1.20
2022-09-28T08:02:24.302Z,1.20
2022-09-28T08:05:48.048Z,1.23
2022-09-28T08:09:13.513Z,1.10
2022-09-28T08:12:59.150Z,1.33
2022-09-28T08:16:48.516Z,1.40
2022-09-28T08:21:11.272Z,1.60
2022-09-28T08:24:36.661Z,1.40
2022-09-28T08:28:00.731Z,1.70
2022-09-28T08:31:25.303Z,1.30
2022-09-28T08:35:06.445Z,1.30
2022-09-28T08:38:47.827Z,1.53
2022-09-28T08:42:44.825Z,1.30
2022-09-28T08:46:41.752Z,1.30
2022-09-28T08:50:50.069Z,1.47
2022-09-28T08:54:39.689Z,1.10
2022-09-28T08:58:16.027Z,1.40
2022-09-28T09:01:48.183Z,1.10
2022-09-28T09:05:18.992Z,1.30
2022-09-28T09:09:11.912Z,1.20
2022-09-28T09:16:37.333Z,1.67
2022-09-28T09:20:35.069Z,1.50
2022-09-28T09:24:24.708Z,1.40
2022-09-28T09:28:12.239Z,1.40
2022-09-28T09:31:53.069Z,1.23
2022-09-28T09:35:51.864Z,1.17
2022-09-28T09:39:44.513Z,1.70
2022-09-28T09:43:58.837Z,1.30
2022-09-28T09:47:48.418Z,1.47
2022-09-28T09:51:36.086Z,1.60
2022-09-28T09:55:04.740Z,1.47
2022-09-28T09:58:46.133Z,1.60
2022-09-28T10:02:27.191Z,1.80
2022-09-28T10:06:13.685Z,1.40
2022-09-28T10:09:42.210Z,1.10
2022-09-28T10:13:23.374Z,1.50
2022-09-28T10:16:53.259Z,1.40
2022-09-28T10:20:41.546Z,1.60
2022-09-28T10:24:26.739Z,1.40
2022-09-28T10:27:52.751Z,1.40
2022-09-28T10:31:41.695Z,1.60
2022-09-28T10:35:27.911Z,1.53
2022-09-28T10:38:55.861Z,1.70
2022-09-28T10:42:31.023Z,1.87
2022-09-28T10:46:04.310Z,1.60
2022-09-28T10:49:29.023Z,1.70
2022-09-28T10:53:10.891Z,1.60
2022-09-28T10:57:30.574Z,1.40
2022-09-28T11:01:03.674Z,1.40
2022-09-28T11:04:30.712Z,1.10
2022-09-28T11:07:55.715Z,1.50
2022-09-28T11:11:25.612Z,1.13
2022-09-28T11:15:02.303Z,1.50
2022-09-28T11:18:32.189Z,1.27
2022-09-28T11:22:01.826Z,1.40
2022-09-28T11:25:32.440Z,1.50
2022-09-28T11:28:57.481Z,1.57
2022-09-28T11:32:46.174Z,1.10
2022-09-28T11:36:30.179Z,1.40
2022-09-28T11:40:04.810Z,1.30
2022-09-28T11:43:51.553Z,1.00
2022-09-28T11:47:39.228Z,1.40
2022-09-28T11:51:09.319Z,1.10
2022-09-28T11:54:42.332Z,1.60
2022-09-28T11:58:12.588Z,1.00
2022-09-28T12:01:41.384Z,1.10
2022-09-28T12:05:20.697Z,1.00
2022-09-28T12:08:51.882Z,1.20
2022-09-28T12:12:40.453Z,0.90
2022-09-28T12:16:38.852Z,1.23
2022-09-28T12:20:16.979Z,1.10
2022-09-28T12:23:44.418Z,1.33
2022-09-28T12:27:15.291Z,1.20
2022-09-28T12:30:40.788Z,1.23
2022-09-28T12:34:04.849Z,1.20
2022-09-28T12:37:54.530Z,0.90
2022-09-28T12:41:42.954Z,0.97
2022-09-28T12:45:24.564Z,1.10
2022-09-28T12:50:07.268Z,1.00
2022-09-28T12:53:21.129Z,0.90
2022-09-28T12:56:56.418Z,1.10
2022-09-28T13:00:23.382Z,1.00
2022-09-28T13:04:47.231Z,1.10
2022-09-28T13:08:19.183Z,1.10
2022-09-28T13:11:54.698Z,1.10
2022-09-28T13:15:41.461Z,1.10
2022-09-28T13:19:13.144Z,0.90
2022-09-28T13:22:55.007Z,1.10
2022-09-28T13:26:28.641Z,1.00
2022-09-28T13:29:54.971Z,1.07
2022-09-28T13:33:29.874Z,1.17
2022-09-28T13:37:23.390Z,1.07
2022-09-28T13:41:13.568Z,0.97
2022-09-28T13:45:09.392Z,1.10
2022-09-28T13:48:48.506Z,1.10
2022-09-28T13:52:31.580Z,0.80
2022-09-28T13:56:04.491Z,0.90
2022-09-28T13:59:29.767Z,0.80
2022-09-28T14:03:04.548Z,1.07
2022-09-28T14:06:29.926Z,1.37
2022-09-28T14:10:20.810Z,1.00
2022-09-28T14:14:01.740Z,1.03
2022-09-28T14:17:52.452Z,1.00
2022-09-28T14:21:50.743Z,1.20
2022-09-28T14:25:21.991Z,1.00
2022-09-28T14:28:57.709Z,1.20
2022-09-28T14:32:33.046Z,1.10
2022-09-28T14:36:01.947Z,1.00
2022-09-28T14:39:50.023Z,0.93
2022-09-28T14:43:37.504Z,1.00
2022-09-28T14:47:34.065Z,0.87
2022-09-28T14:51:37.880Z,0.90
2022-09-28T14:55:03.142Z,1.00
2022-09-28T14:58:29.886Z,1.00
2022-09-28T15:02:00.989Z,1.10
2022-09-28T15:05:28.671Z,0.87
2022-09-28T15:08:52.831Z,1.00
2022-09-28T15:12:19.777Z,0.93
2022-09-28T15:15:50.306Z,0.80
2022-09-28T15:19:28.693Z,0.80
2022-09-28T15:22:57.034Z,0.90
2022-09-28T15:26:25.097Z,1.10
2022-09-28T15:29:59.462Z,1.07
2022-09-28T15:33:45.409Z,1.10
2022-09-28T15:37:11.774Z,1.03
2022-09-28T15:40:39.417Z,0.90
2022-09-28T15:44:32.871Z,1.00
2022-09-28T15:48:20.922Z,0.87
2022-09-28T15:51:53.338Z,0.80
2022-09-28T15:55:25.248Z,0.80
2022-09-28T15:59:18.923Z,0.87
2022-09-28T16:03:05.313Z,1.00
2022-09-28T16:06:29.315Z,0.97
2022-09-28T16:10:03.061Z,0.90
2022-09-28T16:13:27.720Z,1.10
2022-09-28T16:16:53.143Z,0.93
2022-09-28T16:20:27.700Z,1.30
2022-09-28T16:23:55.653Z,1.00
2022-09-28T16:27:27.507Z,1.00
2022-09-28T16:31:03.114Z,1.00
2022-09-28T16:34:28.530Z,0.90
2022-09-28T16:38:11.402Z,1.00
2022-09-28T16:41:35.209Z,0.90
2022-09-28T16:44:59.375Z,1.00
2022-09-28T16:48:24.648Z,1.00
2022-09-28T16:51:52.753Z,0.90
2022-09-28T16:55:39.402Z,0.80
2022-09-28T16:59:02.176Z,0.73
2022-09-28T17:06:13.147Z,0.87
2022-09-28T17:09:36.595Z,0.70
2022-09-28T17:13:01.959Z,0.90
2022-09-28T17:17:02.298Z,0.70
2022-09-28T17:20:22.369Z,0.90
2022-09-28T17:23:47.437Z,0.90
2022-09-28T17:27:19.257Z,0.97
2022-09-28T17:30:44.101Z,0.83
2022-09-28T17:34:07.568Z,0.80
2022-09-28T17:37:34.350Z,0.80
2022-09-28T17:40:57.987Z,0.80
2022-09-28T17:44:21.987Z,0.93
2022-09-28T17:47:46.804Z,0.80
2022-09-28T17:51:10.297Z,0.80
2022-09-28T17:54:33.782Z,0.77
2022-09-28T17:57:57.921Z,0.80
2022-09-28T18:01:21.439Z,0.80
2022-09-28T18:04:52.145Z,0.87
2022-09-28T18:08:21.270Z,1.03
2022-09-28T18:11:46.372Z,1.20
2022-09-28T18:15:11.556Z,1.40
2022-09-28T18:18:37.882Z,1.10
2022-09-28T18:22:02.696Z,1.00
2022-09-28T18:25:26.069Z,1.13
2022-09-28T18:28:49.547Z,1.10
2022-09-28T18:32:13.105Z,1.03
2022-09-28T18:35:37.007Z,1.10
2022-09-28T18:39:02.721Z,1.30
2022-09-28T18:42:26.268Z,1.13
2022-09-28T18:45:49.693Z,1.50
2022-09-28T18:49:13.191Z,1.40
2022-09-28T18:52:37.730Z,1.30
2022-09-28T18:56:07.993Z,1.40
2022-09-28T18:59:31.468Z,1.80
2022-09-28T19:02:55.223Z,1.57
2022-09-28T19:06:18.843Z,1.30
2022-09-28T19:09:44.156Z,1.27
2022-09-28T19:13:08.906Z,1.10
2022-09-28T19:16:34.530Z,1.20
2022-09-28T19:19:57.889Z,1.20
2022-09-28T19:23:21.238Z,1.47
2022-09-28T19:26:46.283Z,1.30
2022-09-28T19:30:13.241Z,1.30
2022-09-28T19:33:37.686Z,1.40
2022-09-28T19:37:03.763Z,1.80
2022-09-28T19:40:27.331Z,1.60
2022-09-28T19:43:50.814Z,1.63
2022-09-28T19:47:16.806Z,1.27
2022-09-28T19:50:41.528Z,1.00
2022-09-28T19:54:07.155Z,1.30
2022-09-28T19:57:33.445Z,1.30
2022-09-28T20:00:57.069Z,1.30
2022-09-28T20:04:22.658Z,1.17
2022-09-28T20:07:46.991Z,1.30
2022-09-28T20:11:14.513Z,1.98
2022-09-28T20:14:40.473Z,1.30
2022-09-28T20:18:04.299Z,1.57
2022-09-28T20:21:29.726Z,1.50
2022-09-28T20:24:53.226Z,1.40
2022-09-28T20:28:19.885Z,1.33
2022-09-28T20:31:44.005Z,1.23
2022-09-28T20:35:09.410Z,1.37
2022-09-28T20:38:37.187Z,1.40
2022-09-28T20:42:01.083Z,1.20
2022-09-28T20:45:24.688Z,1.13
2022-09-28T20:48:49.308Z,1.07
2022-09-28T20:52:13.224Z,1.40
2022-09-28T20:55:38.033Z,1.17
2022-09-28T20:59:01.473Z,1.30
2022-09-28T21:02:25.156Z,1.30
2022-09-28T21:05:51.956Z,1.10
2022-09-28T21:09:15.376Z,1.10
2022-09-28T21:12:40.602Z,1.20
2022-09-28T21:16:05.212Z,0.97
2022-09-28T21:19:29.364Z,1.57
2022-09-28T21:22:52.920Z,1.60
2022-09-28T21:26:24.847Z,1.00
2022-09-28T21:29:49.690Z,1.00
2022-09-28T21:33:13.467Z,1.33
2022-09-28T21:36:37.239Z,1.40
2022-09-28T21:40:02.465Z,1.10
2022-09-28T21:43:27.112Z,1.20
2022-09-28T21:46:52.220Z,1.33
2022-09-28T21:50:16.173Z,1.20
2022-09-28T21:53:40.285Z,1.00
2022-09-28T21:57:04.041Z,1.30
2022-09-28T22:00:27.900Z,1.10
2022-09-28T22:03:55.039Z,1.33
2022-09-28T22:07:18.768Z,1.00
2022-09-28T22:10:42.920Z,1.43
2022-09-28T22:14:06.924Z,1.33
2022-09-28T22:17:30.671Z,1.23
2022-09-28T22:21:01.276Z,1.37
2022-09-28T22:24:25.640Z,1.13
2022-09-28T22:27:49.351Z,1.20
2022-09-28T22:31:13.262Z,1.50
2022-09-28T22:34:37.079Z,1.20
2022-09-28T22:38:02.244Z,0.97
2022-09-28T22:41:26.847Z,1.00
2022-09-28T22:44:50.593Z,1.40
2022-09-28T22:48:14.780Z,1.50
2022-09-28T22:51:38.375Z,1.20
2022-09-28T22:55:03.450Z,1.00
2022-09-28T22:58:27.537Z,1.00
2022-09-28T23:01:51.338Z,1.00
2022-09-28T23:05:16.967Z,1.10
2022-09-28T23:08:41.335Z,1.20
2022-09-28T23:12:06.522Z,1.20
2022-09-28T23:15:29.922Z,1.10
2022-09-28T23:18:54.834Z,1.00
2022-09-28T23:22:18.555Z,1.10
2022-09-28T23:25:42.339Z,1.00
2022-09-28T23:29:07.418Z,1.33
2022-09-28T23:32:32.146Z,1.03
2022-09-28T23:35:55.615Z,1.40
2022-09-28T23:39:19.540Z,1.20
2022-09-28T23:42:43.331Z,1.40
2022-09-28T23:46:08.311Z,1.20
2022-09-28T23:49:32.274Z,1.30
2022-09-28T23:52:56.226Z,1.40
2022-09-28T23:56:20.046Z,1.70
2022-09-28T23:59:43.753Z,1.13
